Time;durP1;ratioP1;P1;durP2;ratioP2;P2;SDS_P1;SDS_P2;PMS_P1;PMS_P2;Temp;Humidity;BMP_temperature;BMP_pressure;BME280_temperature;BME280_humidity;BME280_pressure;Samples;Min_cycle;Max_cycle;Signal;HPM_P1;HPM_P2
2022/01/04 00:01:06;;;;;;;10.25;2.38;;;10.30;96.20;;;;;;5043703;28;20025;-70
2022/01/04 00:03:32;;;;;;;16.77;2.72;;;10.30;96.30;;;;;;5054753;28;20087;-70
2022/01/04 00:06:00;;;;;;;3.60;1.58;;;10.30;96.40;;;;;;5054433;28;20029;-70
2022/01/04 00:08:27;;;;;;;7.28;1.80;;;10.30;96.40;;;;;;5054766;28;20473;-70
2022/01/04 00:11:06;;;;;;;4.85;2.60;;;10.30;96.40;;;;;;5054725;28;20041;-70
2022/01/04 00:13:31;;;;;;;4.00;1.58;;;10.30;96.40;;;;;;5053859;28;20041;-70
2022/01/04 00:15:59;;;;;;;11.27;2.13;;;10.30;96.40;;;;;;5054665;28;20104;-70
2022/01/04 00:18:25;;;;;;;7.25;2.03;;;10.40;96.40;;;;;;5049540;28;20053;-70
2022/01/04 00:20:52;;;;;;;12.32;2.60;;;10.30;96.60;;;;;;5047183;28;20029;-70
2022/01/04 00:23:18;;;;;;;11.48;1.63;;;10.30;96.30;;;;;;5034839;28;20116;-70
2022/01/04 00:25:44;;;;;;;10.02;2.22;;;10.30;96.30;;;;;;5034515;28;20396;-70
2022/01/04 00:28:10;;;;;;;7.22;2.25;;;10.30;96.30;;;;;;5046767;28;20033;-70
2022/01/04 00:30:37;;;;;;;9.00;2.13;;;10.30;96.40;;;;;;5048788;28;20538;-70
2022/01/04 00:33:05;;;;;;;10.00;1.80;;;10.30;96.40;;;;;;5054580;28;20091;-70
2022/01/04 00:35:31;;;;;;;4.35;1.67;;;10.30;96.40;;;;;;5040493;28;20060;-70
2022/01/04 00:37:57;;;;;;;13.05;2.97;;;10.30;96.40;;;;;;5054324;28;20144;-70
2022/01/04 00:40:26;;;;;;;5.40;2.00;;;10.30;96.40;;;;;;5053613;28;20029;-70
2022/01/04 00:42:55;;;;;;;2.97;0.82;;;10.30;96.30;;;;;;5053945;28;20043;-70
2022/01/04 00:45:25;;;;;;;5.90;1.75;;;10.30;96.30;;;;;;5054281;28;20078;-70
2022/01/04 00:50:20;;;;;;;9.82;2.72;;;10.30;96.30;;;;;;5041026;28;20079;-70
2022/01/04 00:52:46;;;;;;;10.20;1.85;;;10.30;96.30;;;;;;5039746;28;20037;-70
2022/01/04 00:55:12;;;;;;;9.45;2.25;;;10.30;96.30;;;;;;5053571;28;20120;-70
2022/01/04 00:57:37;;;;;;;4.70;1.50;;;10.30;96.20;;;;;;5033921;28;20053;-70
2022/01/04 01:00:08;;;;;;;6.53;2.00;;;10.30;96.30;;;;;;5047146;28;20029;-70
2022/01/04 01:02:34;;;;;;;8.88;2.25;;;10.30;96.30;;;;;;5053336;28;20033;-70
2022/01/04 01:05:00;;;;;;;6.18;1.23;;;10.30;96.30;;;;;;5039944;28;20030;-70
2022/01/04 01:07:25;;;;;;;13.05;2.88;;;10.30;96.30;;;;;;5041903;28;20041;-70
2022/01/04 01:10:06;;;;;;;7.70;2.17;;;10.30;96.20;;;;;;5051207;28;20098;-70
2022/01/04 01:12:32;;;;;;;9.73;2.42;;;10.40;96.20;;;;;;5033684;28;20614;-70
2022/01/04 01:14:58;;;;;;;4.38;1.17;;;10.30;96.10;;;;;;5050710;28;20103;-70
2022/01/04 01:17:23;;;;;;;10.68;1.95;;;10.30;96.10;;;;;;5042334;28;20393;-70
2022/01/04 01:19:49;;;;;;;6.03;1.60;;;10.40;96.20;;;;;;5033412;28;20025;-70
2022/01/04 01:22:15;;;;;;;6.80;2.28;;;10.40;96.20;;;;;;5041481;28;20033;-70
2022/01/04 01:24:41;;;;;;;8.82;1.55;;;10.30;96.10;;;;;;5032639;28;20025;-70
2022/01/04 01:27:06;;;;;;;4.07;1.67;;;10.30;96.10;;;;;;5045290;28;20033;-70
2022/01/04 01:29:32;;;;;;;7.03;1.77;;;10.40;96.20;;;;;;5052648;28;20025;-70
2022/01/04 01:31:58;;;;;;;3.85;1.42;;;10.40;96.10;;;;;;5053408;28;20685;-70
2022/01/04 01:34:23;;;;;;;2.80;1.02;;;10.30;96.10;;;;;;5053285;28;20060;-70
2022/01/04 01:36:50;;;;;;;8.30;1.65;;;10.40;96.10;;;;;;5052660;28;20543;-70
2022/01/04 01:39:16;;;;;;;17.00;2.03;;;10.30;96.10;;;;;;5046979;28;20033;-70
2022/01/04 01:41:42;;;;;;;10.95;1.55;;;10.40;96.10;;;;;;5046079;28;20472;-70
2022/01/04 01:44:07;;;;;;;0.90;0.85;;;10.40;96.00;;;;;;5045568;28;20078;-70
2022/01/04 01:46:33;;;;;;;13.43;2.28;;;10.40;96.00;;;;;;5033193;28;20025;-70
2022/01/04 01:48:59;;;;;;;5.60;2.08;;;10.50;96.00;;;;;;5047278;28;20028;-70
2022/01/04 01:51:28;;;;;;;9.50;2.28;;;10.40;96.00;;;;;;5052384;28;20025;-70
2022/01/04 01:53:54;;;;;;;9.35;1.25;;;10.40;96.00;;;;;;5052572;28;20041;-70
2022/01/04 01:56:19;;;;;;;6.72;1.70;;;10.50;96.00;;;;;;5053225;28;20025;-70
2022/01/04 01:58:45;;;;;;;4.97;2.17;;;10.40;95.90;;;;;;5050134;28;20048;-70
2022/01/04 02:01:11;;;;;;;15.43;2.42;;;10.40;95.90;;;;;;5032929;28;20021;-70
2022/01/04 02:03:38;;;;;;;7.72;1.55;;;10.50;96.20;;;;;;5032664;28;20037;-70
2022/01/04 02:06:04;;;;;;;6.28;1.90;;;10.40;95.90;;;;;;5042158;28;20037;-70
2022/01/04 02:08:30;;;;;;;5.13;2.08;;;10.50;95.90;;;;;;5039183;28;20035;-70
2022/01/04 02:10:57;;;;;;;11.73;1.77;;;10.50;95.90;;;;;;5052804;28;20035;-70
2022/01/04 02:13:24;;;;;;;6.65;2.65;;;10.50;96.20;;;;;;5051434;28;20047;-70
2022/01/04 02:15:51;;;;;;;2.47;1.15;;;10.40;95.90;;;;;;5041544;28;20045;-70
2022/01/04 02:18:17;;;;;;;2.58;1.63;;;10.50;95.90;;;;;;5032624;28;20033;-70
2022/01/04 02:20:43;;;;;;;11.32;2.55;;;10.50;95.90;;;;;;5038265;28;20025;-70
2022/01/04 02:23:09;;;;;;;6.00;1.65;;;10.50;96.00;;;;;;5033713;28;20029;-70
2022/01/04 02:25:35;;;;;;;2.17;1.25;;;10.50;96.00;;;;;;5032424;28;20041;-70
2022/01/04 02:28:00;;;;;;;22.45;3.13;;;10.50;96.00;;;;;;5044657;28;20520;-70
2022/01/04 02:30:26;;;;;;;18.75;2.05;;;10.60;95.90;;;;;;5037784;28;20060;-70
2022/01/04 02:32:52;;;;;;;7.75;2.25;;;10.50;95.90;;;;;;5047033;28;20052;-70
2022/01/04 02:35:24;;;;;;;4.38;2.20;;;10.50;95.90;;;;;;5044643;28;20039;-70
2022/01/04 02:37:56;;;;;;;11.13;3.17;;;10.50;95.80;;;;;;5051935;28;20044;-70
2022/01/04 02:40:22;;;;;;;20.67;3.17;;;10.60;95.90;;;;;;5049016;28;20079;-70
2022/01/04 02:42:47;;;;;;;2.95;1.45;;;10.60;95.90;;;;;;5050750;28;20029;-70
2022/01/04 02:45:13;;;;;;;8.60;2.38;;;10.60;95.80;;;;;;5052272;28;20064;-70
2022/01/04 02:47:39;;;;;;;8.25;2.10;;;10.70;95.80;;;;;;5051322;28;20013;-70
2022/01/04 02:50:06;;;;;;;17.08;2.22;;;10.60;95.70;;;;;;5052194;28;20037;-70
2022/01/04 02:52:33;;;;;;;2.70;1.25;;;10.70;95.70;;;;;;5051942;28;20495;-70
2022/01/04 02:55:04;;;;;;;2.65;0.73;;;10.70;95.70;;;;;;5050651;28;20033;-70
2022/01/04 02:57:29;;;;;;;8.13;2.95;;;10.70;95.70;;;;;;5046761;28;20060;-70
2022/01/04 02:59:55;;;;;;;4.70;2.30;;;10.70;95.60;;;;;;5044221;28;20382;-70
2022/01/04 03:02:21;;;;;;;7.55;1.45;;;10.70;95.70;;;;;;5045562;28;20107;-70
2022/01/04 03:04:50;;;;;;;7.55;1.95;;;10.70;95.70;;;;;;5039543;28;20036;-70
2022/01/04 03:07:15;;;;;;;9.50;2.25;;;10.60;95.70;;;;;;5038929;28;20033;-70
2022/01/04 03:09:41;;;;;;;13.88;2.05;;;10.60;95.70;;;;;;5051029;28;20033;-70
2022/01/04 03:12:08;;;;;;;8.75;1.85;;;10.60;95.80;;;;;;5045002;28;20037;-70
2022/01/04 03:14:34;;;;;;;10.88;1.73;;;10.60;95.80;;;;;;5035252;28;20034;-70
2022/01/04 03:17:00;;;;;;;16.65;3.03;;;10.50;95.80;;;;;;5055205;28;20029;-70
2022/01/04 03:19:26;;;;;;;9.98;2.80;;;10.60;95.90;;;;;;5042347;28;20075;-70
2022/01/04 03:21:52;;;;;;;7.28;2.00;;;10.50;95.90;;;;;;5051690;28;20104;-70
2022/01/04 03:24:17;;;;;;;10.55;2.55;;;10.50;96.00;;;;;;5064340;28;20036;-70
2022/01/04 03:26:43;;;;;;;5.38;2.08;;;10.50;96.00;;;;;;5064727;28;20025;-70
2022/01/04 03:29:11;;;;;;;3.83;1.17;;;10.50;96.10;;;;;;5041516;28;20399;-70
2022/01/04 03:31:37;;;;;;;10.13;2.10;;;10.40;96.10;;;;;;5065011;28;20075;-70
2022/01/04 03:34:04;;;;;;;3.85;2.42;;;10.50;96.20;;;;;;5051357;28;20029;-70
2022/01/04 03:36:30;;;;;;;3.42;1.00;;;10.40;96.20;;;;;;5047405;28;20078;-70
2022/01/04 03:38:57;;;;;;;3.58;1.77;;;10.40;96.20;;;;;;5050824;28;20029;-70
2022/01/04 03:41:25;;;;;;;4.20;1.85;;;10.40;96.30;;;;;;5055004;28;20025;-70
2022/01/04 03:43:51;;;;;;;1.45;1.20;;;10.50;96.30;;;;;;5051864;28;20028;-70
2022/01/04 03:46:17;;;;;;;7.40;0.95;;;10.50;96.30;;;;;;5044686;28;20037;-70
2022/01/04 03:48:43;;;;;;;4.20;1.73;;;10.50;96.30;;;;;;5055044;28;20484;-70
2022/01/04 03:51:10;;;;;;;4.75;1.25;;;10.50;96.20;;;;;;5054831;28;20032;-70
2022/01/04 03:53:36;;;;;;;13.10;2.65;;;10.50;96.20;;;;;;5038140;28;20037;-70
2022/01/04 03:56:05;;;;;;;6.82;2.92;;;10.50;96.10;;;;;;5038261;28;20029;-70
2022/01/04 03:58:31;;;;;;;2.15;1.45;;;10.50;96.10;;;;;;5056506;28;20400;-70
2022/01/04 04:00:57;;;;;;;9.02;1.90;;;10.60;96.20;;;;;;5041646;28;20039;-70
2022/01/04 04:03:23;;;;;;;3.90;2.25;;;10.50;96.10;;;;;;5045567;28;20037;-70
2022/01/04 04:05:51;;;;;;;3.10;1.05;;;10.50;96.10;;;;;;5034459;28;20056;-70
2022/01/04 04:08:17;;;;;;;2.50;1.23;;;10.50;96.20;;;;;;5045414;28;20473;-70
2022/01/04 04:10:43;;;;;;;11.95;2.25;;;10.50;96.20;;;;;;5041632;28;20025;-70
2022/01/04 04:13:08;;;;;;;6.18;1.75;;;10.50;96.10;;;;;;5054057;28;20518;-70
2022/01/04 04:15:34;;;;;;;10.13;1.77;;;10.50;96.10;;;;;;5041510;28;20107;-70
2022/01/04 04:18:00;;;;;;;10.60;2.55;;;10.60;96.20;;;;;;5054983;28;20032;-70
2022/01/04 04:20:26;;;;;;;7.72;2.53;;;10.60;96.20;;;;;;5036043;28;20480;-70
2022/01/04 04:22:51;;;;;;;8.98;2.10;;;10.60;96.20;;;;;;5046436;28;20032;-70
2022/01/04 04:25:17;;;;;;;2.65;1.75;;;10.60;96.20;;;;;;5054698;28;20055;-70
2022/01/04 04:27:43;;;;;;;15.32;2.40;;;10.60;96.20;;;;;;5041937;28;20025;-67
2022/01/04 04:30:10;;;;;;;22.80;2.13;;;10.60;96.20;;;;;;5040330;28;20401;-70
2022/01/04 04:32:35;;;;;;;1.52;0.90;;;10.60;96.20;;;;;;5065049;28;20368;-70
2022/01/04 04:35:01;;;;;;;2.97;1.25;;;10.50;96.20;;;;;;5041217;28;20021;-70
2022/01/04 04:37:27;;;;;;;1.45;1.15;;;10.60;96.20;;;;;;5045495;28;20432;-70
2022/01/04 04:39:56;;;;;;;7.78;2.15;;;10.60;96.20;;;;;;5049056;28;20029;-70
2022/01/04 04:42:22;;;;;;;16.67;2.47;;;10.60;96.20;;;;;;5054463;28;20043;-70
2022/01/04 04:44:48;;;;;;;5.35;2.38;;;10.60;96.20;;;;;;5050333;28;20096;-70
2022/01/04 04:47:14;;;;;;;11.45;1.95;;;10.50;96.20;;;;;;5035746;28;20565;-70
2022/01/04 04:49:39;;;;;;;5.30;1.95;;;10.60;96.20;;;;;;5036888;28;20028;-70
2022/01/04 04:52:05;;;;;;;9.45;2.25;;;10.60;96.10;;;;;;5045000;28;20028;-70
2022/01/04 04:54:31;;;;;;;3.30;1.23;;;10.60;96.10;;;;;;5040230;28;20111;-70
2022/01/04 04:56:57;;;;;;;6.18;1.95;;;10.60;96.10;;;;;;5042629;28;20030;-70
2022/01/04 04:59:22;;;;;;;10.48;2.58;;;10.50;96.20;;;;;;5051913;28;20048;-70
2022/01/04 05:01:49;;;;;;;9.48;1.77;;;10.50;96.20;;;;;;5041953;28;20025;-70
2022/01/04 05:04:14;;;;;;;5.75;2.13;;;10.60;96.20;;;;;;5039078;28;20144;-70
2022/01/04 05:06:41;;;;;;;6.43;2.35;;;10.60;96.20;;;;;;5041583;28;20499;-70
2022/01/04 05:09:06;;;;;;;12.93;3.60;;;10.60;96.20;;;;;;5052019;28;20025;-70
2022/01/04 05:11:32;;;;;;;2.90;1.33;;;10.60;96.20;;;;;;5053906;28;20052;-70
2022/01/04 05:13:58;;;;;;;3.03;1.10;;;10.60;96.30;;;;;;5040078;28;20043;-70
2022/01/04 05:16:24;;;;;;;7.97;1.90;;;10.60;96.30;;;;;;5053015;28;20112;-70
2022/01/04 05:18:49;;;;;;;10.10;2.25;;;10.60;96.30;;;;;;5041315;28;20040;-70
2022/01/04 05:21:15;;;;;;;5.20;1.77;;;10.50;96.20;;;;;;5053492;28;20040;-71
2022/01/04 05:23:41;;;;;;;5.63;1.55;;;10.50;96.20;;;;;;5052893;28;20060;-70
2022/01/04 05:26:06;;;;;;;11.10;3.38;;;10.60;96.30;;;;;;5039497;28;20036;-73
2022/01/04 05:28:32;;;;;;;6.97;2.08;;;10.50;96.20;;;;;;5041110;28;20373;-70
2022/01/04 05:30:58;;;;;;;7.90;2.60;;;10.50;96.20;;;;;;5046983;28;20033;-70
2022/01/04 05:33:27;;;;;;;8.25;2.13;;;10.60;96.30;;;;;;5032762;28;20033;-72
2022/01/04 05:35:55;;;;;;;13.68;2.97;;;10.50;96.20;;;;;;5030963;28;20022;-70
2022/01/04 05:38:21;;;;;;;1.60;0.93;;;10.60;96.30;;;;;;5033100;28;20087;-70
2022/01/04 05:40:49;;;;;;;11.80;2.47;;;10.50;96.20;;;;;;5032943;28;20017;-71
2022/01/04 05:43:15;;;;;;;4.68;2.08;;;10.60;96.30;;;;;;5032518;28;20127;-70
2022/01/04 05:45:40;;;;;;;6.68;2.67;;;10.60;96.30;;;;;;5045525;28;20417;-70
2022/01/04 05:48:06;;;;;;;7.05;2.53;;;10.50;96.20;;;;;;5045165;28;20562;-70
2022/01/04 05:50:35;;;;;;;13.15;1.75;;;10.60;96.20;;;;;;5046209;28;20038;-70
2022/01/04 05:53:03;;;;;;;14.68;2.53;;;10.60;96.20;;;;;;5032963;28;20049;-70
2022/01/04 05:55:29;;;;;;;7.93;2.85;;;10.60;96.20;;;;;;5046078;28;20025;-70
2022/01/04 05:57:54;;;;;;;4.03;1.88;;;10.50;96.20;;;;;;5045039;28;20365;-70
2022/01/04 06:00:20;;;;;;;5.53;1.65;;;10.50;96.20;;;;;;5033096;28;20068;-70
2022/01/04 06:02:45;;;;;;;14.85;3.85;;;10.50;96.20;;;;;;5033533;28;20033;-70
2022/01/04 06:05:11;;;;;;;4.70;1.88;;;10.60;96.20;;;;;;5052243;28;20511;-70
2022/01/04 06:07:37;;;;;;;12.90;2.17;;;10.60;96.20;;;;;;5052546;28;20090;-70
2022/01/04 06:10:06;;;;;;;11.00;2.88;;;10.50;96.20;;;;;;5044788;28;20021;-70
2022/01/04 06:15:00;;;;;;;19.17;2.05;;;10.50;96.20;;;;;;5032678;28;20053;-70
2022/01/04 06:17:28;;;;;;;1.48;1.10;;;10.60;96.20;;;;;;5035334;28;20040;-70
2022/01/04 06:19:55;;;;;;;6.65;2.30;;;10.60;96.30;;;;;;5052019;28;20025;-70
2022/01/04 06:22:25;;;;;;;3.35;0.80;;;10.60;96.20;;;;;;5052533;28;20032;-70
2022/01/04 06:24:52;;;;;;;11.88;3.42;;;10.60;96.20;;;;;;5052393;28;20029;-70
2022/01/04 06:27:17;;;;;;;11.23;3.00;;;10.60;96.20;;;;;;5051745;28;20037;-70
2022/01/04 06:29:44;;;;;;;14.93;3.47;;;10.60;96.20;;;;;;5047853;28;20026;-70
2022/01/04 06:32:11;;;;;;;14.07;2.88;;;10.50;96.10;;;;;;5057854;28;20096;-70
2022/01/04 06:34:38;;;;;;;6.63;2.38;;;10.50;96.20;;;;;;5052410;28;20108;-70
2022/01/04 06:37:05;;;;;;;9.63;2.80;;;10.50;96.30;;;;;;5033012;28;20381;-70
2022/01/04 06:39:31;;;;;;;8.55;2.67;;;10.50;96.40;;;;;;5044565;28;20116;-70
2022/01/04 06:41:58;;;;;;;5.18;1.58;;;10.40;96.40;;;;;;5032479;28;20060;-70
2022/01/04 06:44:24;;;;;;;7.80;1.60;;;10.40;96.40;;;;;;5044612;28;20044;-70
2022/01/04 06:46:50;;;;;;;13.18;1.95;;;10.30;96.40;;;;;;5051779;28;20037;-70
2022/01/04 06:49:17;;;;;;;3.88;1.20;;;10.20;96.50;;;;;;5053641;28;20037;-70
2022/01/04 06:51:44;;;;;;;4.63;1.38;;;10.20;96.50;;;;;;5044232;28;20048;-70
2022/01/04 06:54:11;;;;;;;5.97;1.17;;;10.20;96.50;;;;;;5055536;28;20055;-70
2022/01/04 06:56:37;;;;;;;6.78;1.90;;;10.10;96.50;;;;;;5047724;28;20037;-70
2022/01/04 06:59:04;;;;;;;5.65;1.33;;;10.10;96.50;;;;;;5036595;28;20133;-71
2022/01/04 07:01:30;;;;;;;10.63;1.60;;;10.10;96.60;;;;;;5035609;28;20108;-70
2022/01/04 07:03:56;;;;;;;15.95;2.70;;;10.10;96.60;;;;;;5056060;28;20502;-69
2022/01/04 07:06:21;;;;;;;11.40;2.35;;;10.10;96.60;;;;;;5042032;28;20025;-70
2022/01/04 07:08:47;;;;;;;16.90;4.88;;;10.10;96.90;;;;;;5043117;28;20025;-69
2022/01/04 07:11:14;;;;;;;7.72;3.00;;;10.20;96.70;;;;;;5054832;28;20044;-69
2022/01/04 07:13:40;;;;;;;6.95;1.50;;;10.10;96.60;;;;;;5035462;28;20060;-69
2022/01/04 07:16:06;;;;;;;3.05;1.30;;;10.10;96.70;;;;;;5035223;28;20025;-69
2022/01/04 07:18:32;;;;;;;1.00;0.80;;;10.10;96.30;;;;;;5035865;28;20033;-70
2022/01/04 07:20:58;;;;;;;6.55;1.20;;;10.10;96.30;;;;;;5045332;28;20036;-69
2022/01/04 07:23:24;;;;;;;6.53;2.17;;;10.00;96.30;;;;;;5038707;28;20033;-69
2022/01/04 07:25:49;;;;;;;6.97;1.58;;;10.00;96.50;;;;;;5045918;28;20102;-70
2022/01/04 07:28:15;;;;;;;6.43;1.25;;;10.00;96.40;;;;;;5051181;28;20033;-70
2022/01/04 07:30:41;;;;;;;1.42;1.30;;;10.00;96.50;;;;;;5046695;28;20020;-69
2022/01/04 07:33:07;;;;;;;8.40;1.55;;;10.00;96.50;;;;;;5050655;28;20112;-69
2022/01/04 07:35:32;;;;;;;1.77;0.90;;;9.90;96.40;;;;;;5052816;28;20052;-69
2022/01/04 07:37:59;;;;;;;5.80;1.73;;;9.90;96.50;;;;;;5043742;28;20029;-69
2022/01/04 07:40:24;;;;;;;6.25;1.60;;;9.90;96.60;;;;;;5050958;28;20547;-70
2022/01/04 07:42:50;;;;;;;3.58;1.42;;;9.90;96.60;;;;;;5044780;28;20124;-77
2022/01/04 07:45:16;;;;;;;3.33;0.80;;;9.90;96.60;;;;;;5034537;28;20053;-68
2022/01/04 07:47:42;;;;;;;3.72;1.40;;;9.90;96.60;;;;;;5036166;28;20485;-70
2022/01/04 07:50:09;;;;;;;8.70;1.10;;;9.80;96.60;;;;;;5033417;28;20507;-69
2022/01/04 07:52:35;;;;;;;4.07;1.60;;;9.80;96.60;;;;;;5034122;28;20072;-69
2022/01/04 07:55:02;;;;;;;5.88;1.45;;;9.90;96.60;;;;;;5034336;28;20025;-69
2022/01/04 07:57:27;;;;;;;3.85;1.35;;;9.90;96.60;;;;;;5047049;28;20044;-68
2022/01/04 07:59:53;;;;;;;0.95;0.55;;;9.90;96.50;;;;;;5032290;28;20017;-69
2022/01/04 08:02:19;;;;;;;10.32;1.23;;;9.90;96.50;;;;;;5033722;28;20477;-69
2022/01/04 08:04:45;;;;;;;3.97;1.20;;;9.90;96.50;;;;;;5038795;28;20105;-69
2022/01/04 08:07:10;;;;;;;4.50;0.95;;;9.90;96.70;;;;;;5034445;28;20489;-69
2022/01/04 08:09:36;;;;;;;0.77;0.52;;;9.90;96.30;;;;;;5034171;28;20025;-69
2022/01/04 08:12:02;;;;;;;3.58;1.10;;;10.00;96.50;;;;;;5036105;28;20037;-68
2022/01/04 08:14:27;;;;;;;2.17;1.27;;;10.00;96.30;;;;;;5034377;28;20108;-68
2022/01/04 08:16:53;;;;;;;8.02;1.00;;;10.00;96.20;;;;;;5034091;28;20461;-68
2022/01/04 08:19:19;;;;;;;2.17;0.90;;;10.00;96.20;;;;;;5036053;28;20040;-69
2022/01/04 08:21:47;;;;;;;4.15;1.38;;;10.10;96.20;;;;;;5034027;28;20029;-68
2022/01/04 08:24:13;;;;;;;15.45;2.22;;;10.00;96.30;;;;;;5033377;28;20025;-69
2022/01/04 08:26:39;;;;;;;5.15;1.25;;;10.10;96.00;;;;;;5038773;28;20095;-68
2022/01/04 08:29:04;;;;;;;8.20;1.00;;;10.10;96.00;;;;;;5033644;28;20063;-68
2022/01/04 08:31:30;;;;;;;1.05;0.98;;;10.10;96.00;;;;;;5038391;28;20041;-68
2022/01/04 08:33:56;;;;;;;2.80;1.30;;;10.10;96.00;;;;;;5036076;28;20378;-68
2022/01/04 08:36:22;;;;;;;0.90;0.80;;;10.10;95.90;;;;;;5034235;28;20112;-68
2022/01/04 08:38:48;;;;;;;7.18;1.98;;;10.20;95.90;;;;;;5036281;28;20029;-68
2022/01/04 08:41:14;;;;;;;9.15;2.08;;;10.20;95.90;;;;;;5036627;28;20032;-71
2022/01/04 08:43:39;;;;;;;9.25;2.38;;;10.20;95.90;;;;;;5033434;28;20045;-67
2022/01/04 08:46:08;;;;;;;10.95;2.10;;;10.20;95.90;;;;;;5031720;28;20041;-68
2022/01/04 08:48:33;;;;;;;32.53;2.35;;;10.30;95.90;;;;;;5036363;28;20534;-68
2022/01/04 08:50:59;;;;;;;14.38;2.45;;;10.30;95.80;;;;;;5035960;28;20025;-68
2022/01/04 08:53:25;;;;;;;11.73;2.10;;;10.30;95.70;;;;;;5032090;28;20079;-68
2022/01/04 08:55:50;;;;;;;8.00;1.50;;;10.40;95.70;;;;;;5032728;28;20021;-68
2022/01/04 08:58:16;;;;;;;7.20;1.35;;;10.40;95.60;;;;;;5032227;28;20271;-68
2022/01/04 09:00:43;;;;;;;10.38;1.20;;;10.40;95.60;;;;;;5034632;28;20025;-67
2022/01/04 09:03:09;;;;;;;3.25;0.93;;;10.40;95.50;;;;;;5034311;28;20034;-68
2022/01/04 09:05:35;;;;;;;10.48;1.02;;;10.50;95.50;;;;;;5032244;28;20021;-67
2022/01/04 09:08:01;;;;;;;5.90;0.98;;;10.40;95.50;;;;;;5031356;28;20059;-68
2022/01/04 09:10:30;;;;;;;5.25;1.02;;;10.50;95.50;;;;;;5032116;28;20025;-68
2022/01/04 09:13:11;;;;;;;6.45;0.93;;;10.50;95.30;;;;;;5032660;28;20037;-67
2022/01/04 09:20:51;;;;;;;1.08;0.68;;;10.70;95.20;;;;;;5031952;28;20025;-68
2022/01/04 09:23:20;;;;;;;6.50;0.93;;;10.70;95.10;;;;;;5032143;28;20033;-68
2022/01/04 09:25:47;;;;;;;2.35;0.50;;;10.70;95.10;;;;;;5033760;28;20159;-68
2022/01/04 09:28:14;;;;;;;4.47;0.85;;;10.70;95.00;;;;;;5032591;28;20060;-68
2022/01/04 09:30:41;;;;;;;3.53;0.73;;;10.70;94.90;;;;;;5033485;28;20481;-68
2022/01/04 09:33:08;;;;;;;6.70;0.80;;;10.70;94.80;;;;;;5033213;28;20481;-68
2022/01/04 09:35:36;;;;;;;3.22;1.02;;;10.70;94.80;;;;;;5031238;28;20033;-68
2022/01/04 09:38:03;;;;;;;3.40;0.70;;;10.80;94.80;;;;;;5047650;28;20024;-68
2022/01/04 09:40:29;;;;;;;2.30;0.80;;;10.80;94.70;;;;;;5048874;28;20025;-68
2022/01/04 09:42:54;;;;;;;2.80;0.80;;;10.80;94.90;;;;;;5049742;28;20043;-68
2022/01/04 09:45:20;;;;;;;1.52;0.63;;;10.80;94.60;;;;;;5041688;28;20029;-68
2022/01/04 09:47:47;;;;;;;7.35;1.40;;;10.80;94.60;;;;;;5043178;28;21676;-68
2022/01/04 09:50:12;;;;;;;3.03;0.65;;;10.90;94.50;;;;;;5050109;28;20095;-68
2022/01/04 09:52:43;;;;;;;3.25;0.70;;;10.80;94.40;;;;;;5039499;28;20037;-68
2022/01/04 09:55:11;;;;;;;2.05;0.52;;;10.80;94.30;;;;;;5037719;28;20099;-68
2022/01/04 09:57:37;;;;;;;1.27;0.63;;;10.80;94.30;;;;;;5040713;28;20081;-68
2022/01/04 10:00:05;;;;;;;0.43;0.40;;;10.80;94.20;;;;;;5042516;28;20070;-68
2022/01/04 10:02:31;;;;;;;2.28;0.77;;;10.80;94.30;;;;;;5041973;28;20039;-67
2022/01/04 10:05:12;;;;;;;2.05;0.65;;;10.80;94.20;;;;;;5039004;28;20464;-68
2022/01/04 10:07:39;;;;;;;2.42;0.82;;;10.80;94.20;;;;;;5043177;28;20047;-68
2022/01/04 10:10:05;;;;;;;2.13;0.55;;;10.70;94.20;;;;;;5040691;28;20028;-68
2022/01/04 10:12:51;;;;;;;3.45;0.95;;;10.70;94.20;;;;;;5041999;28;20041;-67
2022/01/04 10:16:03;;;;;;;0.95;0.55;;;10.70;94.20;;;;;;5042536;28;20543;-67
2022/01/04 10:18:29;;;;;;;5.28;0.77;;;10.70;94.20;;;;;;5039180;28;20052;-67
2022/01/04 10:21:03;;;;;;;1.30;0.70;;;10.60;94.20;;;;;;5042842;28;20021;-67
2022/01/04 10:23:29;;;;;;;1.02;0.50;;;10.60;94.10;;;;;;5037099;28;20057;-68
2022/01/04 10:26:04;;;;;;;2.15;0.50;;;10.60;94.10;;;;;;5043518;28;20057;-68
2022/01/04 10:28:36;;;;;;;3.00;1.08;;;10.60;94.10;;;;;;5046354;28;20389;-68
2022/01/04 10:31:05;;;;;;;4.00;0.93;;;10.60;94.10;;;;;;5048569;28;20028;-67
2022/01/04 10:33:32;;;;;;;4.57;0.90;;;10.60;94.10;;;;;;5031687;28;20045;-67
2022/01/04 10:36:00;;;;;;;4.93;0.82;;;10.60;94.10;;;;;;5032628;28;20026;-67
2022/01/04 10:38:30;;;;;;;3.67;0.50;;;10.60;94.20;;;;;;5034901;28;20843;-67
2022/01/04 10:41:07;;;;;;;1.70;0.98;;;10.50;94.10;;;;;;5035375;28;20021;-68
2022/01/04 10:43:40;;;;;;;1.10;0.50;;;10.50;94.20;;;;;;5042838;28;20024;-68
2022/01/04 10:46:07;;;;;;;2.53;0.55;;;10.50;94.10;;;;;;5043392;28;20068;-67
2022/01/04 10:48:39;;;;;;;2.65;0.65;;;10.60;94.10;;;;;;5044725;28;20037;-68
2022/01/04 10:51:22;;;;;;;2.42;0.90;;;10.60;93.90;;;;;;5052204;28;20021;-68
2022/01/04 10:53:50;;;;;;;3.42;0.68;;;10.60;93.90;;;;;;5051228;28;20075;-67
2022/01/04 10:56:22;;;;;;;5.47;1.20;;;10.60;93.90;;;;;;5052456;28;20037;-67
2022/01/04 10:58:50;;;;;;;1.07;0.50;;;10.50;93.90;;;;;;5044766;28;20124;-67
2022/01/04 11:01:26;;;;;;;1.40;0.63;;;10.50;94.00;;;;;;5043836;28;20345;-67
2022/01/04 11:03:54;;;;;;;4.32;1.27;;;10.50;94.00;;;;;;5032287;28;20033;-67
2022/01/04 11:06:34;;;;;;;0.40;0.40;;;10.50;94.00;;;;;;5048051;28;20040;-67
2022/01/04 11:09:00;;;;;;;2.85;0.52;;;10.50;94.00;;;;;;5051379;28;20035;-68
2022/01/04 11:11:27;;;;;;;4.95;0.75;;;10.50;94.10;;;;;;5038855;28;20041;-68
2022/01/04 11:13:53;;;;;;;0.88;0.60;;;10.50;94.00;;;;;;5038536;28;20131;-67
2022/01/04 11:16:24;;;;;;;2.75;0.75;;;10.40;94.00;;;;;;5051652;28;20021;-67
2022/01/04 11:18:55;;;;;;;2.65;1.45;;;10.50;94.00;;;;;;5040650;28;20052;-67
2022/01/04 11:21:35;;;;;;;3.08;0.77;;;10.40;94.00;;;;;;5029632;28;20873;-67
2022/01/04 11:24:03;;;;;;;5.22;0.85;;;10.50;94.00;;;;;;5032745;28;20036;-67
2022/01/04 11:26:30;;;;;;;10.13;0.73;;;10.40;93.90;;;;;;5031464;28;20021;-67
2022/01/04 11:28:56;;;;;;;5.38;0.80;;;10.40;93.90;;;;;;5032990;28;20033;-67
2022/01/04 11:31:47;;;;;;;2.72;0.73;;;10.40;93.90;;;;;;5033733;28;20029;-66
2022/01/04 11:34:50;;;;;;;6.03;0.85;;;10.40;93.80;;;;;;5026374;28;20053;-67
2022/01/04 11:37:24;;;;;;;2.25;0.70;;;10.40;93.80;;;;;;5046274;28;20546;-68
2022/01/04 11:39:51;;;;;;;;;;;10.30;93.60;;;;;;5037654;28;20096;-68
2022/01/04 11:42:37;;;;;;;4.75;1.15;;;10.30;93.80;;;;;;5037429;28;20497;-68
2022/01/04 11:45:09;;;;;;;2.35;0.52;;;10.30;93.50;;;;;;5034556;28;20033;-68
2022/01/04 11:47:35;;;;;;;8.15;1.27;;;10.30;93.60;;;;;;5039544;28;20021;-69
2022/01/04 11:50:16;;;;;;;8.27;1.23;;;10.20;93.30;;;;;;5040157;28;20032;-68
2022/01/04 11:52:46;;;;;;;3.60;1.08;;;10.20;92.50;;;;;;5034421;28;20546;-68
2022/01/04 11:55:36;;;;;;;8.05;1.33;;;10.20;92.50;;;;;;5039165;28;20112;-67
2022/01/04 11:58:13;;;;;;;2.85;0.50;;;10.20;91.90;;;;;;5033891;28;20099;-67
2022/01/04 12:00:45;;;;;;;1.40;0.80;;;10.20;91.10;;;;;;5037268;28;20025;-67
2022/01/04 12:03:13;;;;;;;4.43;0.80;;;10.20;91.20;;;;;;5035517;28;20060;-67
2022/01/04 12:05:58;;;;;;;3.15;0.75;;;10.20;91.00;;;;;;5034526;28;20496;-67
2022/01/04 12:08:48;;;;;;;5.05;1.80;;;10.20;90.80;;;;;;5037320;28;20026;-67
2022/01/04 12:11:20;;;;;;;5.45;1.02;;;10.10;90.50;;;;;;5033508;28;20409;-67
2022/01/04 12:13:47;;;;;;;5.82;1.05;;;10.20;90.50;;;;;;5034360;28;20036;-72
2022/01/04 12:16:14;;;;;;;2.22;0.60;;;10.10;90.50;;;;;;5034210;28;20033;-67
2022/01/04 12:18:39;;;;;;;5.47;1.38;;;10.10;91.00;;;;;;5033543;28;20032;-67
2022/01/04 12:21:12;;;;;;;2.92;1.30;;;10.10;90.80;;;;;;5033352;28;20405;-67
2022/01/04 12:23:48;;;;;;;5.38;1.20;;;10.10;90.50;;;;;;5034521;28;20041;-67
2022/01/04 12:26:14;;;;;;;6.05;1.10;;;10.00;90.40;;;;;;5033850;28;20046;-68
2022/01/04 12:29:00;;;;;;;6.03;1.60;;;10.00;90.40;;;;;;5037013;28;20041;-68
2022/01/04 12:31:34;;;;;;;5.50;1.10;;;10.00;89.70;;;;;;5036605;28;20052;-69
2022/01/04 12:34:26;;;;;;;14.82;1.00;;;10.00;89.20;;;;;;5033784;28;20045;-67
2022/01/04 12:36:52;;;;;;;6.68;1.35;;;10.00;89.60;;;;;;5033305;28;20070;-67
2022/01/04 12:39:20;;;;;;;3.47;0.90;;;10.00;90.20;;;;;;5034233;28;20091;-68
2022/01/04 12:41:48;;;;;;;11.02;1.00;;;9.90;89.90;;;;;;5034430;28;20556;-67
2022/01/04 12:44:24;;;;;;;3.25;0.77;;;9.90;89.10;;;;;;5034889;28;20124;-67
2022/01/04 12:46:52;;;;;;;5.45;1.33;;;9.90;90.20;;;;;;5033143;28;20385;-67
2022/01/04 12:49:20;;;;;;;3.75;0.90;;;9.90;89.80;;;;;;5038513;28;20022;-67
2022/01/04 12:51:54;;;;;;;5.80;0.90;;;9.90;90.00;;;;;;5037666;28;20037;-67
2022/01/04 12:54:22;;;;;;;3.53;0.65;;;9.90;90.70;;;;;;5033510;28;20041;-67
2022/01/04 12:56:48;;;;;;;6.65;1.05;;;9.90;91.60;;;;;;5036400;28;20017;-67
2022/01/04 12:59:22;;;;;;;3.40;1.65;;;9.90;91.70;;;;;;5032785;28;20411;-67